Weather Data

Pearl Creek Farm: 8878 N Farm Road 75, Walnut Grove MO 65770

<== Previous Day (Saturday 08 Apr 2017) | Next Day (Monday 10 Apr 2017) ==>

Summary Precipitation Data For Sunday 09 April 2017

ElementValueUnits
Precipitation0"
Notes(none)
SourcePearl Creek Farm

Summary Temperature Data For Sunday 09 April 2017

ElementValueUnits
High Temperature80 oF
Low Temperature61 oF
Average Temperature70 oF
High Humidity70 %
Low Humidity44 %
Average Humidity60 %
SourceSpringfield-Branson National Airport (SGF)

Detail Temperature Data For Sunday 09 April 2017

Date / TimeTemp (F)RH (%)Dew Pt (F)Report Date / TimeSource
2017-04-09 00:52:00 61 60 47.0 2017-12-29 17:00:26.17417 Springfield-Branson National Airport (SGF)
2017-04-09 01:52:00 62 60 48.0 2017-12-29 17:00:26.17417 Springfield-Branson National Airport (SGF)
2017-04-09 02:52:00 61 63 48.0 2017-12-29 17:00:26.17417 Springfield-Branson National Airport (SGF)
2017-04-09 03:52:00 61 65 49.0 2017-12-29 17:00:26.17417 Springfield-Branson National Airport (SGF)
2017-04-09 04:52:00 61 67 50.0 2017-12-29 17:00:26.17417 Springfield-Branson National Airport (SGF)
2017-04-09 05:52:00 61 70 51.0 2017-12-29 17:00:26.17417 Springfield-Branson National Airport (SGF)
2017-04-09 06:52:00 63 70 53.0 2017-12-29 17:00:26.17417 Springfield-Branson National Airport (SGF)
2017-04-09 07:52:00 66 68 55.0 2017-12-29 17:00:26.17417 Springfield-Branson National Airport (SGF)
2017-04-09 08:52:00 69 66 57.0 2017-12-29 17:00:26.17417 Springfield-Branson National Airport (SGF)
2017-04-09 09:52:00 74 60 59.0 2017-12-29 17:00:26.17417 Springfield-Branson National Airport (SGF)
2017-04-09 10:52:00 75 55 58.0 2017-12-29 17:00:26.17417 Springfield-Branson National Airport (SGF)
2017-04-09 11:52:00 77 52 58.0 2017-12-29 17:00:26.17417 Springfield-Branson National Airport (SGF)
2017-04-09 12:52:00 78 54 60.0 2017-12-29 17:00:26.17417 Springfield-Branson National Airport (SGF)
2017-04-09 13:52:00 79 50 59.0 2017-12-29 17:00:26.17417 Springfield-Branson National Airport (SGF)
2017-04-09 14:52:00 78 50 58.0 2017-12-29 17:00:26.17417 Springfield-Branson National Airport (SGF)
2017-04-09 15:52:00 80 44 56.0 2017-12-29 17:00:26.17417 Springfield-Branson National Airport (SGF)
2017-04-09 16:52:00 79 44 55.0 2017-12-29 17:00:26.17417 Springfield-Branson National Airport (SGF)
2017-04-09 17:52:00 74 52 55.0 2017-12-29 17:00:26.17417 Springfield-Branson National Airport (SGF)
2017-04-09 18:52:00 71 59 56.0 2017-12-29 17:00:26.17417 Springfield-Branson National Airport (SGF)
2017-04-09 19:52:00 70 61 56.0 2017-12-29 17:00:26.17417 Springfield-Branson National Airport (SGF)
2017-04-09 20:52:00 70 64 57.0 2017-12-29 17:00:26.17417 Springfield-Branson National Airport (SGF)
2017-04-09 21:52:00 70 64 57.0 2017-12-29 17:00:26.17417 Springfield-Branson National Airport (SGF)
2017-04-09 22:52:00 68 65 56.0 2017-12-29 17:00:26.17417 Springfield-Branson National Airport (SGF)
2017-04-09 23:52:00 67 68 56.0 2017-12-29 17:00:26.17417 Springfield-Branson National Airport (SGF)

A total of 24 rows are displayed.